SYOT2: Lake Kemp

Data processed at Sat Jan 13 2018 23:21


All information presented herein is the property of the government of the United States of America and may be revised or deleted at any time without prior notice.
Dissemination of this information without the expressed written consent of the Public Affairs Office, Tulsa District U.S. Army Corps of Engineers is strictly prohibited.
These data are gathered electronically and, as presented, have not undergone any form of quality control. These data are not guaranteed to be valid or correct.
Go to home page.
Go to station list.

Upstream stations:

Downstream station:
Previous Day
Next Day
Current Day
    
SHEF ID:       SYOT2     Lake Kemp nr Mabelle, TX
STATION TYPE:  RESERVOIR
Normal Pool:  Bottom =  1090.00, Top =  1144.00

               PRECIP ELEVATION   STORAGE    INFLOW   RELEASE  BAT-LOAD
                   in        ft     ac-ft       cfs       cfs      volt
              Ccp-Rev   Ccp-Rev   Ccp-Rev  Regi-Rev  Regi-Rev   Ccp-Rev
(US/Central)
01/11 00:00      0.00   1142.52    223406       703         0     13.60
01/11 01:00      0.00   1142.51    223260       703         0     13.60
01/11 02:00      0.00   1142.52    223406       141         0     13.60
01/11 03:00      0.00   1142.52    223406       141         0     13.60
01/11 04:00      0.00   1142.52    223406       141         0     13.60
01/11 05:00      0.00   1142.50    223115       141         0     13.60
01/11 06:00      0.00   1142.55    223841       141         0     13.60
01/11 07:00      0.00   1142.58    224277         0         0     13.60
01/11 08:00      0.00   1142.53    223551         0         0     13.60
01/11 09:00      0.00   1142.49    222970       141         0     13.60
01/11 10:00      0.00   1142.49    222970       141         0     13.60
01/11 11:00      0.00   1142.50    223115       141         0     13.60
01/11 12:00      0.00   1142.53    223551       141         0     13.60
01/11 13:00      0.00   1142.52    223406       141         0     13.60
01/11 14:00      0.00   1142.50    223115         0         0     13.60
01/11 15:00      0.00   1142.48    222824         0         0     13.60
01/11 16:00      0.00   1142.46    222534        29         0     13.60
01/11 17:00      0.00   1142.47    222679        57         0     13.60
01/11 18:00      0.00   1142.49    222970       177         0     13.60
01/11 19:00      0.00   1142.49    222970       177         0     13.60
01/11 20:00      0.00   1142.51    223260       177         0     13.60
01/11 21:00      0.00   1142.50    223115       148         0     13.60
01/11 22:00      0.00   1142.49    222970       120         0     13.60
01/11 23:00      0.00   1142.47    222679         0         0     13.60